Time;durP1;ratioP1;P1;durP2;ratioP2;P2;SDS_P1;SDS_P2;PMS_P1;PMS_P2;Temp;Humidity;BMP_temperature;BMP_pressure;BME280_temperature;BME280_humidity;BME280_pressure;Samples;Min_cycle;Max_cycle;Signal;HPM_P1;HPM_P2
2022/08/15 07:27:41;;;;;;;5.75;2.50;;;;;;;20.48;65.94;95691.25;2085582;28;20558;-64
2022/08/15 07:28:49;;;;;;;8.50;2.70;;;;;;;20.62;65.42;95709.28;2083261;28;20251;-64
2022/08/15 07:30:00;;;;;;;7.93;2.50;;;;;;;20.61;65.78;95706.75;2081600;28;20193;-64
2022/08/15 07:31:18;;;;;;;5.00;2.28;;;;;;;20.56;65.46;95700.09;2081373;28;20655;-64
2022/08/15 07:32:35;;;;;;;7.97;2.63;;;;;;;20.80;64.77;95695.19;2076638;28;20684;-64
2022/08/15 07:33:42;;;;;;;8.10;2.15;;;;;;;20.96;64.60;95695.28;2078023;28;20769;-64
2022/08/15 07:34:56;;;;;;;6.68;2.67;;;;;;;20.92;64.24;95698.41;2073948;28;20222;-64
2022/08/15 07:36:17;;;;;;;4.53;2.08;;;;;;;20.98;63.62;95695.94;2072258;28;20789;-64
2022/08/15 07:56:14;;;;;;;4.55;2.05;;;;;;;21.08;62.15;95719.72;2102151;27;20556;-62
2022/08/15 07:57:37;;;;;;;4.97;1.65;;;;;;;21.39;61.17;95710.44;2090781;28;20249;-65
2022/08/15 07:59:15;;;;;;;3.17;2.15;;;;;;;21.65;59.75;95719.22;2089180;28;20188;-64
2022/08/15 08:00:27;;;;;;;4.43;1.65;;;;;;;21.89;58.63;95720.31;2089650;28;20223;-62
2022/08/15 08:01:53;;;;;;;3.45;1.38;;;;;;;21.93;58.43;95718.97;2089778;28;20238;-62
2022/08/15 08:15:02;;;;;;;3.58;1.67;;;;;;;22.95;55.60;95705.44;2087774;28;20567;-63
2022/08/15 08:16:29;;;;;;;4.07;1.55;;;;;;;23.24;53.69;95709.41;2086659;28;20713;-63
2022/08/15 08:17:52;;;;;;;4.07;1.40;;;;;;;23.08;54.60;95712.09;2078764;28;20232;-64
2022/08/15 08:19:18;;;;;;;2.67;1.60;;;;;;;23.41;53.73;95717.34;2079375;28;20254;-64
2022/08/15 08:20:37;;;;;;;3.13;1.60;;;;;;;23.59;53.54;95715.31;2079280;28;20215;-64
2022/08/15 08:21:47;;;;;;;3.20;1.60;;;;;;;24.01;53.10;95713.31;2077962;28;20286;-63
2022/08/15 08:23:11;;;;;;;2.20;1.45;;;;;;;24.20;52.29;95716.53;2078208;28;20201;-64
2022/08/15 08:24:27;;;;;;;4.47;1.85;;;;;;;24.32;51.04;95725.78;2079201;28;20223;-64
2022/08/15 08:34:41;;;;;;;3.85;1.55;;;;;;;24.18;50.81;95708.72;2104898;27;20568;-63
2022/08/15 08:36:27;;;;;;;3.15;1.48;;;;;;;24.36;49.83;95710.25;2103487;28;20745;-63
2022/08/15 08:37:48;;;;;;;4.80;1.50;;;;;;;24.25;49.50;95708.81;2087347;28;20227;-64
2022/08/15 08:39:00;;;;;;;2.92;1.20;;;;;;;23.95;50.70;95712.16;2087639;28;20196;-63
2022/08/15 08:42:05;;;;;;;2.35;1.10;;;;;;;24.26;50.93;95718.50;2087111;28;20252;-64
2022/08/15 08:43:39;;;;;;;3.65;1.40;;;;;;;24.36;49.51;95716.41;2087280;28;20200;-64
2022/08/15 08:45:04;;;;;;;2.80;1.23;;;;;;;24.55;48.96;95722.28;2086338;28;20199;-63
2022/08/15 08:46:48;;;;;;;4.45;1.95;;;;;;;24.78;49.25;95722.31;2085900;28;20197;-63
2022/08/15 08:48:10;;;;;;;2.50;1.42;;;;;;;25.26;47.71;95716.69;2087187;28;20192;-64
2022/08/15 08:49:42;;;;;;;1.98;1.30;;;;;;;24.90;48.13;95728.88;2087516;28;20204;-64
2022/08/15 08:51:06;;;;;;;2.47;1.50;;;;;;;24.66;48.84;95721.06;2086539;28;20663;-63
2022/08/15 08:52:26;;;;;;;6.78;1.40;;;;;;;24.77;47.94;95723.31;2086972;28;20224;-63
2022/08/15 08:53:55;;;;;;;4.72;1.70;;;;;;;24.41;48.38;95723.91;2087472;28;20562;-64
2022/08/15 08:55:10;;;;;;;4.05;1.60;;;;;;;24.34;47.88;95720.28;2087228;28;20580;-64
2022/08/15 08:56:25;;;;;;;2.67;1.00;;;;;;;24.80;47.45;95724.78;2084408;28;20192;-64
2022/08/15 08:57:40;;;;;;;4.18;1.33;;;;;;;25.41;46.69;95730.09;2087078;28;20200;-64
2022/08/15 08:58:49;;;;;;;1.98;1.10;;;;;;;25.53;45.35;95728.59;2087575;28;20667;-64
2022/08/15 08:59:59;;;;;;;9.43;1.80;;;;;;;25.76;45.75;95730.34;2087196;28;20228;-63
2022/08/15 09:13:57;;;;;;;4.30;1.65;;;;;;;25.19;44.84;95729.09;2082859;28;20557;-63
2022/08/15 09:15:03;;;;;;;8.02;1.75;;;;;;;25.49;44.11;95729.97;2076460;28;20288;-63
2022/08/15 09:16:23;;;;;;;4.60;1.50;;;;;;;25.46;43.99;95729.53;2080556;28;20743;-63
2022/08/15 09:17:33;;;;;;;6.15;1.63;;;;;;;24.97;44.89;95725.50;2070600;28;20259;-64
2022/08/15 09:18:46;;;;;;;3.92;1.50;;;;;;;25.24;44.69;95721.38;2070813;28;20747;-64
2022/08/15 09:19:58;;;;;;;5.50;1.52;;;;;;;25.86;44.01;95725.53;2073412;28;20204;-66
2022/08/15 09:20:59;;;;;;;2.45;1.45;;;;;;;26.12;43.06;95720.72;2071783;28;20652;-65
2022/08/15 09:22:02;;;;;;;1.77;1.05;;;;;;;26.52;42.75;95723.81;2071069;28;20241;-66
2022/08/15 09:23:08;;;;;;;23.40;2.67;;;;;;;26.71;42.05;95725.84;2072578;28;20202;-66
2022/08/15 09:24:11;;;;;;;10.65;1.70;;;;;;;26.82;41.60;95723.72;2072548;28;20525;-66
2022/08/15 09:25:39;;;;;;;4.15;1.48;;;;;;;27.17;40.84;95726.44;2075493;28;20655;-65
2022/08/15 09:27:06;;;;;;;5.57;1.25;;;;;;;27.38;40.12;95729.06;2075934;28;20226;-66
2022/08/15 09:28:21;;;;;;;2.65;1.38;;;;;;;27.42;40.64;95729.53;2068241;28;20347;-64
2022/08/15 09:29:37;;;;;;;2.53;1.27;;;;;;;27.32;40.28;95729.03;2073644;28;20247;-64
2022/08/15 09:31:04;;;;;;;2.50;1.50;;;;;;;27.57;40.02;95713.34;2073704;28;20251;-64
2022/08/15 09:32:14;;;;;;;2.50;1.45;;;;;;;27.20;40.44;95731.44;2074353;28;20283;-64
2022/08/15 09:33:38;;;;;;;1.90;1.05;;;;;;;27.58;40.22;95724.88;2074439;28;20282;-64
2022/08/15 09:42:40;;;;;;;2.53;1.40;;;;;;;27.67;39.76;95721.84;2075331;27;20574;-63
2022/08/15 09:44:00;;;;;;;2.28;1.20;;;;;;;27.19;40.76;95716.38;2071354;28;20680;-64
2022/08/15 09:45:37;;;;;;;2.45;1.50;;;;;;;27.26;40.59;95711.06;2070943;28;20206;-64
2022/08/15 09:47:19;;;;;;;2.90;1.67;;;;;;;27.52;40.09;95711.25;2070277;28;20225;-64
2022/08/15 09:48:50;;;;;;;8.05;2.00;;;;;;;27.51;40.10;95716.81;2070815;28;20202;-63
2022/08/15 09:50:18;;;;;;;3.28;1.60;;;;;;;27.61;40.02;95709.22;2071038;28;20750;-64
2022/08/15 09:51:50;;;;;;;3.35;1.25;;;;;;;27.34;39.42;95708.25;2070633;28;20296;-64
2022/08/15 09:53:03;;;;;;;4.35;1.60;;;;;;;27.48;40.19;95715.34;2071136;28;20232;-64
2022/08/15 09:54:22;;;;;;;2.55;1.50;;;;;;;27.58;39.42;95711.47;2071184;28;20208;-65
2022/08/15 09:55:46;;;;;;;2.55;1.48;;;;;;;28.08;39.15;95704.09;2070327;28;20209;-64
2022/08/15 09:57:19;;;;;;;2.88;1.40;;;;;;;27.56;39.35;95711.69;2070469;28;20217;-65
2022/08/15 09:58:31;;;;;;;7.35;1.50;;;;;;;27.37;40.08;95705.16;2071159;28;20198;-65
2022/08/15 09:59:35;;;;;;;3.08;1.60;;;;;;;28.00;39.39;95706.94;2070824;28;20314;-65
2022/08/15 10:00:57;;;;;;;3.25;1.30;;;;;;;28.07;38.75;95707.00;2071305;28;20240;-65
2022/08/15 10:02:20;;;;;;;2.88;1.42;;;;;;;27.20;39.42;95708.13;2061105;28;20234;-65
2022/08/15 10:03:43;;;;;;;2.38;1.40;;;;;;;27.01;39.94;95706.16;2062542;28;20233;-65
2022/08/15 10:04:49;;;;;;;2.67;1.42;;;;;;;26.75;40.14;95704.91;2062916;28;20315;-65
2022/08/15 10:06:04;;;;;;;2.30;1.30;;;;;;;26.98;40.30;95702.03;2062915;28;20206;-65
2022/08/15 10:08:01;;;;;;;2.92;1.27;;;;;;;27.54;38.79;95700.31;2062338;28;20266;-65
2022/08/15 10:09:30;;;;;;;2.50;1.40;;;;;;;28.32;38.26;95699.22;2063171;28;20225;-65
2022/08/15 10:10:31;;;;;;;2.25;1.40;;;;;;;29.12;36.72;95701.16;2063017;28;20202;-65
2022/08/15 10:11:38;;;;;;;2.30;1.15;;;;;;;29.17;35.89;95696.78;2060621;28;20555;-65
2022/08/15 10:13:26;;;;;;;2.15;1.50;;;;;;;27.88;37.67;95697.81;2063001;28;20209;-65
2022/08/15 10:14:42;;;;;;;2.92;1.70;;;;;;;27.76;37.44;95697.56;2060620;28;20211;-65
2022/08/15 10:15:46;;;;;;;2.00;1.10;;;;;;;27.51;38.27;95690.00;2059380;28;20199;-65
2022/08/15 10:16:55;;;;;;;2.00;1.20;;;;;;;27.20;38.96;95692.06;2060910;28;20222;-65
2022/08/15 10:17:58;;;;;;;3.63;1.60;;;;;;;27.24;39.25;95697.88;2071085;28;20205;-65
2022/08/15 10:19:25;;;;;;;2.10;1.17;;;;;;;27.71;39.16;95698.16;2068945;28;20198;-65
2022/08/15 10:20:34;;;;;;;6.18;1.45;;;;;;;28.44;37.52;95702.13;2063249;28;20592;-65
2022/08/15 10:21:44;;;;;;;4.70;1.30;;;;;;;28.76;36.58;95695.19;2062407;28;20257;-66
2022/08/15 10:23:00;;;;;;;2.97;1.40;;;;;;;28.49;36.50;95697.81;2063147;28;20206;-64
2022/08/15 10:24:20;;;;;;;5.43;1.52;;;;;;;27.82;37.41;95699.41;2061619;28;20217;-66
2022/08/15 10:25:36;;;;;;;4.30;1.52;;;;;;;27.83;37.52;95693.03;2062348;28;20561;-65
2022/08/15 10:26:42;;;;;;;3.47;1.45;;;;;;;27.55;38.01;95696.63;2059560;28;20223;-65
2022/08/15 10:28:12;;;;;;;4.47;1.77;;;;;;;28.23;37.56;95687.84;2063529;28;20205;-64
2022/08/15 10:29:36;;;;;;;2.78;1.40;;;;;;;29.12;36.38;95696.59;2063043;28;20206;-64
2022/08/15 10:30:41;;;;;;;2.97;1.30;;;;;;;29.18;36.39;95700.31;2060187;28;20665;-64
2022/08/15 10:31:57;;;;;;;3.22;1.95;;;;;;;28.95;36.45;95696.22;2062940;28;20214;-64
2022/08/15 10:33:31;;;;;;;2.08;1.10;;;;;;;28.63;36.99;95697.81;2062097;28;20223;-64
2022/08/15 10:34:57;;;;;;;4.40;1.35;;;;;;;28.33;37.72;95693.63;2061054;28;20618;-64
2022/08/15 10:36:14;;;;;;;3.00;1.40;;;;;;;28.25;37.79;95682.25;2063174;28;20202;-65
2022/08/15 10:37:58;;;;;;;3.08;1.50;;;;;;;28.48;37.52;95687.25;2068103;28;20229;-66
2022/08/15 10:39:22;;;;;;;2.83;1.30;;;;;;;28.39;37.43;95678.59;2063480;28;20230;-65
2022/08/15 10:40:27;;;;;;;2.33;1.35;;;;;;;28.29;37.46;95683.50;2060938;28;20551;-65
2022/08/15 10:42:09;;;;;;;3.00;1.60;;;;;;;27.91;38.27;95686.66;2062123;28;20297;-65
2022/08/15 10:43:39;;;;;;;2.25;1.17;;;;;;;27.68;38.56;95683.28;2062574;28;20650;-65
2022/08/15 10:45:06;;;;;;;2.85;1.42;;;;;;;28.40;37.90;95684.78;2062388;28;20209;-65
2022/08/15 10:46:34;;;;;;;4.10;1.60;;;;;;;29.03;36.83;95679.03;2062080;28;20615;-65
2022/08/15 10:48:07;;;;;;;12.27;1.52;;;;;;;29.24;36.53;95680.69;2063442;28;20286;-65
2022/08/15 10:49:43;;;;;;;2.35;1.40;;;;;;;29.64;35.72;95680.59;2063415;28;20229;-65
2022/08/15 10:51:37;;;;;;;2.15;1.13;;;;;;;30.21;34.89;95681.84;2063116;28;20194;-65
2022/08/15 10:52:49;;;;;;;3.05;1.35;;;;;;;29.88;35.42;95682.78;2059607;28;20211;-65
2022/08/15 10:54:22;;;;;;;4.03;1.50;;;;;;;29.28;36.22;95679.25;2056488;28;20234;-65
2022/08/15 10:55:38;;;;;;;9.55;1.92;;;;;;;29.48;35.57;95657.69;2055640;28;20199;-66
2022/08/15 10:56:59;;;;;;;3.28;1.58;;;;;;;29.15;36.20;95666.63;2056790;28;20214;-66
2022/08/15 10:58:18;;;;;;;7.90;1.83;;;;;;;29.70;35.43;95670.84;2056184;28;20279;-67
2022/08/15 10:59:26;;;;;;;5.57;1.55;;;;;;;29.65;35.42;95668.81;2056723;28;20203;-65
2022/08/15 11:00:38;;;;;;;7.80;1.55;;;;;;;29.14;36.19;95662.28;2064964;28;20252;-66
2022/08/15 11:02:18;;;;;;;3.05;1.50;;;;;;;28.84;36.34;95667.28;2060974;28;20574;-66
2022/08/15 11:03:48;;;;;;;4.03;1.58;;;;;;;27.98;37.89;95666.88;2056615;28;20230;-67
2022/08/15 11:05:15;;;;;;;3.53;1.50;;;;;;;28.41;37.23;95660.41;2057002;28;20230;-67
2022/08/15 11:06:20;;;;;;;2.78;1.40;;;;;;;28.87;36.57;95666.84;2056648;28;20227;-67
2022/08/15 11:07:27;;;;;;;2.75;1.55;;;;;;;29.52;35.56;95660.75;2057468;28;20534;-67
2022/08/15 11:08:30;;;;;;;5.30;2.08;;;;;;;29.77;34.78;95654.69;2056156;28;20246;-67
2022/08/15 11:09:31;;;;;;;2.95;1.60;;;;;;;30.36;33.85;95666.22;2057329;28;20199;-66
2022/08/15 11:10:39;;;;;;;2.60;1.50;;;;;;;30.72;33.71;95658.53;2057555;28;20561;-66
2022/08/15 11:11:47;;;;;;;4.97;1.88;;;;;;;31.24;33.45;95660.97;2056802;28;20231;-66
2022/08/15 11:12:52;;;;;;;4.38;1.48;;;;;;;30.81;33.39;95669.84;2057209;28;20374;-66
2022/08/15 11:13:59;;;;;;;2.70;1.83;;;;;;;29.55;34.66;95663.03;2056657;28;20238;-67
2022/08/15 11:15:15;;;;;;;2.58;1.70;;;;;;;29.18;35.55;95662.69;2057233;28;20425;-67
2022/08/15 11:16:31;;;;;;;3.53;1.65;;;;;;;29.03;36.07;95664.78;2056167;28;20229;-67
2022/08/15 11:17:38;;;;;;;2.67;1.47;;;;;;;29.00;36.22;95657.94;2057309;28;20207;-67
2022/08/15 11:18:53;;;;;;;4.35;1.88;;;;;;;29.79;34.74;95664.19;2057655;28;20749;-67
2022/08/15 11:20:12;;;;;;;3.17;1.75;;;;;;;30.40;33.72;95678.19;2057257;28;20210;-66
2022/08/15 11:21:55;;;;;;;4.32;1.92;;;;;;;30.93;32.95;95662.69;2056620;28;20202;-66
2022/08/15 11:22:59;;;;;;;2.53;1.95;;;;;;;31.52;32.27;95662.34;2055841;28;20199;-67
2022/08/15 11:24:07;;;;;;;4.55;1.80;;;;;;;32.10;31.44;95652.94;2057355;28;20210;-66
2022/08/15 11:25:17;;;;;;;6.13;1.87;;;;;;;32.08;30.76;95653.16;2057228;28;20535;-66
2022/08/15 11:26:27;;;;;;;7.18;1.50;;;;;;;31.54;31.92;95654.84;2055856;28;20460;-66
2022/08/15 11:27:31;;;;;;;2.95;1.60;;;;;;;31.67;31.65;95654.72;2056994;28;20245;-67
2022/08/15 11:28:39;;;;;;;3.45;1.60;;;;;;;32.08;31.19;95653.16;2055697;28;20207;-67
2022/08/15 11:29:58;;;;;;;4.37;2.27;;;;;;;32.58;30.72;95651.22;2057068;28;20281;-67
2022/08/15 11:31:19;;;;;;;2.50;1.63;;;;;;;31.83;30.92;95652.47;2056239;28;20472;-67
2022/08/15 11:32:38;;;;;;;3.83;1.77;;;;;;;32.33;30.56;95651.38;2055628;28;20440;-66
2022/08/15 11:33:45;;;;;;;7.97;2.07;;;;;;;32.02;30.93;95653.25;2056847;28;20429;-66
2022/08/15 11:34:47;;;;;;;2.83;1.60;;;;;;;32.60;30.48;95653.72;2054028;28;20432;-66
2022/08/15 11:36:07;;;;;;;3.83;2.00;;;;;;;32.85;29.92;95661.66;2056373;28;20524;-67
2022/08/15 11:37:19;;;;;;;6.97;2.27;;;;;;;32.95;29.39;95659.19;2055816;28;20453;-67
2022/08/15 11:38:23;;;;;;;4.90;1.80;;;;;;;33.03;29.36;95649.91;2063485;28;20455;-67
2022/08/15 11:39:28;;;;;;;5.70;1.80;;;;;;;32.12;30.55;95644.63;2064010;28;20432;-67
2022/08/15 11:40:38;;;;;;;5.30;1.60;;;;;;;32.75;30.09;95645.16;2054504;28;20433;-67
2022/08/15 11:41:45;;;;;;;3.30;1.87;;;;;;;32.19;30.20;95638.09;2054734;28;20465;-67
2022/08/15 11:42:57;;;;;;;3.37;1.77;;;;;;;32.85;30.04;95645.44;2056580;28;20476;-67
2022/08/15 11:44:13;;;;;;;3.40;1.60;;;;;;;31.90;30.76;95639.72;2057078;28;20432;-67
2022/08/15 11:45:22;;;;;;;4.43;1.60;;;;;;;31.35;31.75;95638.69;2056860;28;20800;-67
2022/08/15 11:46:26;;;;;;;6.27;2.43;;;;;;;31.20;32.00;95646.31;2055935;28;20447;-67
2022/08/15 11:47:35;;;;;;;8.23;1.53;;;;;;;31.05;32.18;95647.44;2056647;28;20935;-67
2022/08/15 11:48:40;;;;;;;3.77;1.80;;;;;;;30.60;33.07;95639.53;2056947;28;20468;-67
2022/08/15 11:49:47;;;;;;;3.67;1.80;;;;;;;30.38;33.19;95639.06;2056892;28;20904;-66
2022/08/15 11:51:03;;;;;;;3.10;1.80;;;;;;;30.56;33.30;95649.94;2056500;28;20468;-67
2022/08/15 11:52:08;;;;;;;3.17;1.90;;;;;;;30.32;33.54;95648.00;2056408;28;20499;-67
2022/08/15 11:53:35;;;;;;;3.50;2.10;;;;;;;30.10;33.82;95638.38;2056242;28;20442;-67
2022/08/15 11:54:37;;;;;;;4.77;2.00;;;;;;;29.90;34.07;95629.63;2055749;28;20436;-67
2022/08/15 11:55:42;;;;;;;8.17;2.40;;;;;;;29.64;34.40;95636.75;2056240;28;20520;-67
2022/08/15 11:56:55;;;;;;;3.03;1.73;;;;;;;29.10;35.63;95631.50;2055000;28;20473;-67
2022/08/15 11:58:12;;;;;;;6.30;1.67;;;;;;;29.51;35.34;95634.94;2056424;28;20449;-67
2022/08/15 11:59:22;;;;;;;7.50;1.93;;;;;;;29.86;34.75;95637.25;2055934;28;20519;-67
2022/08/15 12:00:48;;;;;;;2.33;1.93;;;;;;;30.00;34.10;95640.72;2056628;28;20957;-67
2022/08/15 12:02:07;;;;;;;2.40;1.50;;;;;;;30.92;33.11;95647.59;2054957;28;20496;-67
2022/08/15 12:03:19;;;;;;;5.07;1.90;;;;;;;30.95;32.92;95634.47;2055681;28;20470;-67
2022/08/15 12:04:45;;;;;;;2.87;1.63;;;;;;;30.62;34.04;95640.16;2055621;28;20425;-67
2022/08/15 12:06:12;;;;;;;2.60;1.77;;;;;;;28.40;37.06;95637.28;2055283;28;20891;-67
2022/08/15 12:07:42;;;;;;;4.17;1.83;;;;;;;29.09;36.59;95629.84;2054623;28;20923;-67
2022/08/15 12:08:47;;;;;;;2.03;1.47;;;;;;;29.15;36.42;95634.38;2056436;28;20436;-67
2022/08/15 12:09:59;;;;;;;5.77;1.80;;;;;;;28.92;36.14;95625.94;2056755;28;20820;-67
2022/08/15 12:11:04;;;;;;;3.70;1.80;;;;;;;28.86;36.70;95624.91;2056010;28;20448;-68
2022/08/15 12:12:24;;;;;;;2.50;1.57;;;;;;;29.16;36.19;95625.25;2054223;28;20543;-67
2022/08/15 12:13:27;;;;;;;6.63;2.13;;;;;;;28.77;37.02;95632.38;2056800;28;20995;-67
2022/08/15 12:14:45;;;;;;;3.20;1.47;;;;;;;29.27;35.74;95625.69;2064002;28;20440;-67
2022/08/15 12:15:47;;;;;;;3.63;2.17;;;;;;;30.40;34.64;95628.91;2060809;28;20454;-67
2022/08/15 12:17:02;;;;;;;3.33;1.93;;;;;;;30.80;33.44;95630.47;2056112;28;20527;-67
2022/08/15 12:18:23;;;;;;;28.37;23.00;;;;;;;31.09;33.15;95629.00;2056050;28;20437;-67
2022/08/15 12:19:47;;;;;;;38.67;28.20;;;;;;;30.80;33.37;95633.19;2056396;28;20951;-67
2022/08/15 12:21:12;;;;;;;5.07;2.53;;;;;;;29.72;34.38;95633.81;2055371;28;20453;-67
2022/08/15 12:22:45;;;;;;;5.23;3.73;;;;;;;29.99;34.68;95636.38;2055574;28;20420;-67
2022/08/15 12:24:00;;;;;;;4.30;2.00;;;;;;;29.84;34.45;95633.97;2055202;28;20432;-67
2022/08/15 12:25:08;;;;;;;3.53;1.70;;;;;;;30.06;33.85;95626.41;2056534;28;20433;-67
2022/08/15 12:26:18;;;;;;;4.57;1.90;;;;;;;29.96;34.13;95634.13;2055824;28;20461;-67
2022/08/15 12:27:40;;;;;;;5.10;2.03;;;;;;;31.00;33.36;95628.41;2056248;28;20436;-67
2022/08/15 12:28:43;;;;;;;6.27;1.97;;;;;;;31.94;31.84;95632.81;2056044;28;20975;-67
2022/08/15 12:29:50;;;;;;;3.33;1.90;;;;;;;31.94;31.79;95621.19;2055582;28;20477;-67
2022/08/15 12:30:57;;;;;;;3.90;1.77;;;;;;;31.15;32.26;95630.78;2056613;28;20971;-67
2022/08/15 12:32:00;;;;;;;5.63;1.77;;;;;;;30.49;33.40;95627.63;2055669;28;20465;-67
2022/08/15 12:33:22;;;;;;;7.80;1.83;;;;;;;30.10;33.74;95622.25;2055703;28;20429;-67
2022/08/15 12:34:27;;;;;;;3.20;1.93;;;;;;;29.82;34.30;95630.66;2055714;28;20429;-67
2022/08/15 12:35:36;;;;;;;2.80;1.80;;;;;;;30.30;34.08;95610.53;2055289;28;20807;-68
2022/08/15 12:37:08;;;;;;;2.57;1.90;;;;;;;30.63;33.90;95622.94;2055597;28;20470;-67
2022/08/15 12:38:10;;;;;;;3.20;1.80;;;;;;;30.85;33.07;95626.06;2055640;28;20487;-67
2022/08/15 12:39:15;;;;;;;3.00;2.00;;;;;;;31.57;32.50;95630.94;2054668;28;20543;-67
2022/08/15 12:40:16;;;;;;;3.10;2.00;;;;;;;31.80;32.16;95631.34;2057053;28;20461;-67
2022/08/15 12:41:45;;;;;;;6.00;1.63;;;;;;;32.01;32.16;95628.16;2058636;28;20820;-67
2022/08/15 12:43:06;;;;;;;2.83;1.80;;;;;;;31.57;31.89;95619.34;2056603;28;20496;-67
2022/08/15 12:44:20;;;;;;;6.23;2.20;;;;;;;31.82;31.99;95634.63;2056290;28;20432;-67
2022/08/15 12:45:24;;;;;;;3.07;1.70;;;;;;;32.44;31.22;95637.09;2056695;28;20881;-68
2022/08/15 12:46:36;;;;;;;2.27;1.50;;;;;;;32.24;31.35;95627.44;2056184;28;20998;-67
2022/08/15 13:04:59;;;;;;;3.55;2.25;;;;;;;27.77;37.43;95634.84;2107923;27;20560;-66
2022/08/15 13:06:12;;;;;;;2.92;1.60;;;;;;;27.88;37.74;95642.31;2105580;28;20226;-67
2022/08/15 13:07:35;;;;;;;4.85;2.10;;;;;;;27.87;37.56;95635.28;2088168;28;20224;-67
2022/08/15 13:15:37;;;;;;;6.47;2.40;;;;;;;27.93;42.61;95634.47;2085986;28;20889;-64
2022/08/15 13:16:40;;;;;;;11.02;2.45;;;;;;;28.38;43.22;95641.19;2075332;28;20778;-66
2022/08/15 13:18:01;;;;;;;5.35;2.30;;;;;;;28.88;42.15;95638.16;2075204;28;20200;-65
2022/08/15 13:19:11;;;;;;;5.75;2.20;;;;;;;29.90;42.33;95635.84;2072191;28;20201;-66
2022/08/15 13:23:35;;;;;;;10.38;2.15;;;;;;;29.82;37.84;95617.22;2069857;28;20193;-62
2022/08/15 13:24:57;;;;;;;4.60;2.10;;;;;;;28.81;38.12;95609.44;2071254;28;20240;-64
2022/08/15 13:26:04;;;;;;;4.00;1.90;;;;;;;29.07;38.52;95607.72;2077599;28;20283;-64
2022/08/15 13:27:26;;;;;;;13.60;4.18;;;;;;;28.98;38.44;95609.00;2073121;28;20676;-65
2022/08/15 13:37:59;;;;;;;5.72;2.55;;;;;;;27.36;39.84;95598.97;2084931;28;20550;-66
2022/08/15 15:18:07;;;;;;;7.63;2.10;;;;;;;16.99;83.17;95701.16;2108819;27;20559;-70
2022/08/15 15:26:55;;;;;;;4.25;1.90;;;;;;;17.24;82.18;95720.16;2094080;27;20547;-70
2022/08/15 15:27:56;;;;;;;7.43;2.35;;;;;;;17.29;82.32;95713.53;2085180;28;20199;-70
2022/08/15 15:36:17;;;;;;;7.00;2.97;;;;;;;17.83;82.87;95726.44;2085441;28;20546;-68
2022/08/15 15:37:31;;;;;;;5.30;2.33;;;;;;;17.91;81.97;95725.78;2082394;28;20203;-69
2022/08/15 15:43:49;;;;;;;6.63;2.60;;;;;;;18.54;79.75;95716.66;2092370;28;20559;-68
2022/08/15 15:44:51;;;;;;;7.07;2.95;;;;;;;18.43;79.84;95720.28;2089804;28;20254;-69
2022/08/15 15:45:52;;;;;;;6.05;2.45;;;;;;;18.37;80.95;95716.41;2083130;28;20199;-69
2022/08/15 15:52:15;;;;;;;7.18;2.75;;;;;;;18.75;86.27;95712.03;2104443;27;20546;-70
2022/08/15 15:53:22;;;;;;;5.57;2.67;;;;;;;19.00;86.23;95711.59;2103582;28;20195;-72
2022/08/15 15:54:23;;;;;;;32.15;19.00;;;;;;;19.23;85.05;95709.44;2100250;28;20200;-73
2022/08/15 16:00:39;;;;;;;7.80;3.55;;;;;;;19.40;81.17;95707.81;2088725;28;20580;-75
2022/08/15 16:01:42;;;;;;;7.28;2.20;;;;;;;19.64;78.15;95717.03;2072766;28;20271;-74
2022/08/15 16:03:05;;;;;;;4.57;2.65;;;;;;;19.75;75.09;95725.63;2083764;28;20689;-74
2022/08/15 16:04:07;;;;;;;7.00;2.47;;;;;;;19.53;79.03;95728.69;2081576;28;20255;-75
2022/08/15 16:10:46;;;;;;;5.40;2.17;;;;;;;18.69;78.64;95677.38;2084414;28;21078;-75
2022/08/15 16:11:55;;;;;;;8.07;2.95;;;;;;;19.17;77.42;95733.81;2074196;28;20290;-73
2022/08/15 16:20:40;;;;;;;8.35;3.45;;;;;;;18.98;77.65;95759.38;2091151;28;20567;-73
2022/08/15 16:27:56;;;;;;;7.70;2.80;;;;;;;18.71;77.96;95770.63;2102622;27;20531;-74
2022/08/15 16:33:39;;;;;;;6.93;2.70;;;;;;;18.30;78.98;95762.84;2107236;27;20552;-72
2022/08/15 16:34:52;;;;;;;7.35;2.80;;;;;;;18.29;79.22;95766.44;2105239;28;20673;-74
2022/08/15 16:41:19;;;;;;;5.35;2.75;;;;;;;18.48;80.08;95770.91;2101451;27;20578;-74
2022/08/15 16:48:22;;;;;;;4.47;2.05;;;;;;;18.11;79.78;95758.38;2084081;28;20595;-72
2022/08/15 16:55:55;;;;;;;6.25;3.25;;;;;;;19.20;77.15;95766.13;2106828;27;20571;-71
2022/08/15 17:02:17;;;;;;;9.73;2.35;;;;;;;19.55;73.50;95772.56;2084608;27;20563;-74
2022/08/15 17:10:40;;;;;;;4.55;2.47;;;;;;;19.33;74.68;95763.16;2082838;28;20577;-72
2022/08/15 17:20:52;;;;;;;4.82;2.45;;;;;;;18.62;78.07;95759.09;2084359;28;20543;-74
2022/08/15 17:33:32;;;;;;;13.05;2.63;;;;;;;18.08;78.47;95733.06;2087646;28;20912;-70
